createdAt,value
2023-02-25T00:00:31.684Z,22.88
2023-02-25T00:03:01.008Z,23.83
2023-02-25T00:05:32.223Z,22.88
2023-02-25T00:08:01.308Z,24.45
2023-02-25T00:10:30.372Z,23.83
2023-02-25T00:13:17.149Z,24.23
2023-02-25T00:15:46.916Z,24.30
2023-02-25T00:18:15.897Z,22.88
2023-02-25T00:20:44.971Z,23.88
2023-02-25T00:23:13.823Z,22.15
2023-02-25T00:25:42.867Z,23.02
2023-02-25T00:28:16.480Z,22.77
2023-02-25T00:30:45.460Z,21.90
2023-02-25T00:33:14.505Z,21.90
2023-02-25T00:35:46.578Z,23.38
2023-02-25T00:38:16.386Z,22.05
2023-02-25T00:40:48.385Z,21.77
2023-02-25T00:43:18.961Z,21.25
2023-02-25T00:45:50.258Z,21.67
2023-02-25T00:48:19.647Z,24.85
2023-02-25T00:50:48.577Z,22.50
2023-02-25T00:53:19.449Z,22.85
2023-02-25T00:55:48.641Z,23.98
2023-02-25T00:58:18.922Z,23.60
2023-02-25T01:00:52.119Z,23.20
2023-02-25T01:03:21.447Z,23.30
2023-02-25T01:05:50.555Z,22.23
2023-02-25T01:08:21.587Z,23.90
2023-02-25T01:10:50.848Z,22.58
2023-02-25T01:13:21.157Z,23.83
2023-02-25T01:15:50.128Z,21.95
2023-02-25T01:18:20.650Z,24.23
2023-02-25T01:20:49.591Z,23.33
2023-02-25T01:23:19.865Z,22.33
2023-02-25T01:25:49.306Z,22.30
2023-02-25T01:28:18.296Z,24.85
2023-02-25T01:30:48.619Z,23.83
2023-02-25T01:33:17.816Z,25.70
2023-02-25T01:35:46.758Z,23.85
2023-02-25T01:38:18.821Z,21.50
2023-02-25T01:40:47.902Z,25.27
2023-02-25T01:43:19.143Z,24.00
2023-02-25T01:45:51.650Z,24.70
2023-02-25T01:48:24.046Z,22.70
2023-02-25T01:50:58.737Z,23.38
2023-02-25T01:53:34.358Z,24.20
2023-02-25T01:56:04.758Z,21.50
2023-02-25T01:58:34.974Z,22.75
2023-02-25T02:01:09.581Z,23.85
2023-02-25T02:03:39.794Z,24.35
2023-02-25T02:06:12.575Z,22.67
2023-02-25T02:08:45.565Z,23.63
2023-02-25T02:11:14.994Z,22.85
2023-02-25T02:13:48.706Z,22.80
2023-02-25T02:16:45.305Z,23.90
2023-02-25T02:19:29.024Z,21.13
2023-02-25T02:22:08.812Z,21.60
2023-02-25T02:25:19.768Z,21.98
2023-02-25T02:28:53.549Z,21.23
2023-02-25T02:31:45.697Z,20.80
2023-02-25T02:34:30.401Z,22.20
2023-02-25T02:37:15.691Z,22.80
2023-02-25T02:39:55.902Z,23.15
2023-02-25T02:42:38.816Z,22.83
2023-02-25T02:45:16.914Z,21.70
2023-02-25T02:47:51.329Z,21.65
2023-02-25T02:50:30.920Z,21.70
2023-02-25T02:53:04.832Z,20.83
2023-02-25T02:55:38.029Z,21.75
2023-02-25T02:58:12.724Z,22.60
2023-02-25T03:00:47.771Z,22.00
2023-02-25T03:03:23.299Z,20.38
2023-02-25T03:05:55.210Z,22.15
2023-02-25T03:08:29.592Z,22.70
2023-02-25T03:10:59.248Z,21.92
2023-02-25T03:13:28.271Z,21.58
2023-02-25T03:15:59.532Z,22.30
2023-02-25T03:18:39.099Z,22.05
2023-02-25T03:21:16.397Z,22.50
2023-02-25T03:23:49.247Z,22.13
2023-02-25T03:26:26.229Z,23.92
2023-02-25T03:28:59.997Z,21.75
2023-02-25T03:31:35.681Z,20.98
2023-02-25T03:34:13.816Z,20.50
2023-02-25T03:36:47.364Z,21.45
2023-02-25T03:39:21.968Z,20.65
2023-02-25T03:41:55.798Z,20.13
2023-02-25T03:44:32.368Z,20.92
2023-02-25T03:47:04.970Z,19.70
2023-02-25T03:49:41.979Z,21.10
2023-02-25T03:52:18.089Z,21.27
2023-02-25T03:54:52.711Z,21.35
2023-02-25T03:57:25.048Z,20.20
2023-02-25T03:59:56.305Z,20.33
2023-02-25T04:02:29.491Z,20.92
2023-02-25T04:05:00.279Z,21.67
2023-02-25T04:07:29.841Z,19.33
2023-02-25T04:09:58.918Z,19.33
2023-02-25T04:12:27.968Z,18.80
2023-02-25T04:14:56.997Z,19.33
2023-02-25T04:17:25.932Z,18.83
2023-02-25T04:19:55.181Z,18.27
2023-02-25T04:22:25.644Z,19.42
2023-02-25T04:24:54.871Z,19.27
2023-02-25T04:27:24.242Z,21.00
2023-02-25T04:29:53.141Z,20.95
2023-02-25T04:32:22.332Z,19.80
2023-02-25T04:34:51.319Z,18.90
2023-02-25T04:37:20.288Z,19.10
2023-02-25T04:39:50.615Z,18.40
2023-02-25T04:42:19.564Z,18.30
2023-02-25T04:44:48.682Z,19.55
2023-02-25T04:47:19.165Z,19.40
2023-02-25T04:49:48.227Z,20.50
2023-02-25T04:52:17.348Z,21.10
2023-02-25T04:54:46.266Z,20.55
2023-02-25T04:57:16.627Z,20.35
2023-02-25T04:59:45.619Z,19.27
2023-02-25T05:02:14.752Z,19.27
2023-02-25T05:04:43.811Z,19.35
2023-02-25T05:07:12.791Z,19.75
2023-02-25T05:09:41.771Z,19.85
2023-02-25T05:12:11.045Z,19.13
2023-02-25T05:14:41.487Z,19.10
2023-02-25T05:17:10.402Z,19.42
2023-02-25T05:19:39.311Z,19.38
2023-02-25T05:22:08.999Z,18.55
2023-02-25T05:24:39.146Z,20.38
2023-02-25T05:27:09.229Z,19.27
2023-02-25T05:29:38.284Z,19.10
2023-02-25T05:32:08.850Z,19.98
2023-02-25T05:34:37.867Z,19.42
2023-02-25T05:37:07.508Z,18.95
2023-02-25T05:39:36.532Z,19.52
2023-02-25T05:42:06.068Z,20.02
2023-02-25T05:44:35.179Z,21.05
2023-02-25T05:47:04.216Z,21.90
2023-02-25T05:49:34.580Z,21.40
2023-02-25T05:52:03.593Z,19.83
2023-02-25T05:54:32.686Z,19.27
2023-02-25T05:57:01.626Z,21.20
2023-02-25T05:59:30.580Z,19.95
2023-02-25T06:01:59.647Z,19.55
2023-02-25T06:04:28.647Z,18.75
2023-02-25T06:06:59.123Z,19.67
2023-02-25T06:09:28.143Z,18.85
2023-02-25T06:11:59.831Z,20.35
2023-02-25T06:14:28.762Z,18.77
2023-02-25T06:16:57.733Z,18.40
2023-02-25T06:19:28.675Z,17.35
2023-02-25T06:21:59.067Z,19.10
2023-02-25T06:24:28.665Z,20.48
2023-02-25T06:26:58.003Z,24.85
2023-02-25T06:29:26.951Z,20.77
2023-02-25T06:31:56.103Z,20.77
2023-02-25T06:34:25.279Z,21.73
2023-02-25T06:36:54.215Z,21.92
2023-02-25T06:39:24.553Z,22.35
2023-02-25T06:41:53.576Z,22.00
2023-02-25T06:44:22.510Z,20.10
2023-02-25T06:46:51.886Z,22.15
2023-02-25T06:49:20.818Z,21.52
2023-02-25T06:51:50.346Z,23.70
2023-02-25T06:54:20.459Z,24.30
2023-02-25T06:56:57.040Z,22.42
2023-02-25T06:59:26.128Z,21.30
2023-02-25T07:01:55.263Z,17.98
2023-02-25T07:04:24.283Z,16.58
2023-02-25T07:06:53.275Z,15.25
2023-02-25T07:09:22.874Z,12.48
2023-02-25T07:11:53.220Z,12.52
2023-02-25T07:14:25.202Z,13.35
2023-02-25T07:16:57.282Z,15.90
2023-02-25T07:19:28.716Z,15.95
2023-02-25T07:21:57.844Z,13.93
2023-02-25T07:24:28.011Z,12.50
2023-02-25T07:26:58.559Z,14.13
2023-02-25T07:29:27.589Z,19.65
2023-02-25T07:31:56.913Z,15.70
2023-02-25T07:34:25.939Z,11.13
2023-02-25T07:36:54.961Z,8.05
2023-02-25T07:39:24.127Z,8.95
2023-02-25T07:41:53.104Z,9.60
2023-02-25T07:44:24.025Z,7.55
2023-02-25T07:46:53.017Z,7.85
2023-02-25T07:49:24.395Z,5.82
2023-02-25T07:51:53.356Z,5.72
2023-02-25T07:54:22.905Z,4.97
2023-02-25T07:56:52.561Z,4.68
2023-02-25T07:59:28.909Z,5.30
2023-02-25T08:01:58.292Z,4.15
2023-02-25T08:04:31.101Z,3.55
2023-02-25T08:07:00.183Z,4.90
2023-02-25T08:09:30.777Z,3.20
2023-02-25T08:11:59.799Z,2.85
2023-02-25T08:14:30.261Z,2.45
2023-02-25T08:17:01.805Z,2.20
2023-02-25T08:19:31.570Z,2.08
2023-02-25T08:22:01.346Z,1.40
2023-02-25T08:24:30.737Z,1.50
2023-02-25T08:26:59.938Z,1.20
2023-02-25T08:29:30.845Z,1.65
2023-02-25T08:32:00.382Z,1.80
2023-02-25T08:34:29.552Z,1.45
2023-02-25T08:36:59.297Z,1.10
2023-02-25T08:39:29.319Z,1.42
2023-02-25T08:41:58.415Z,1.00
2023-02-25T08:44:27.461Z,1.13
2023-02-25T08:47:01.374Z,1.58
2023-02-25T08:49:30.703Z,1.02
2023-02-25T08:51:59.625Z,1.10
2023-02-25T08:54:28.628Z,0.82
2023-02-25T08:57:00.252Z,0.77
2023-02-25T08:59:35.780Z,0.70
2023-02-25T09:02:08.654Z,0.68
2023-02-25T09:04:38.054Z,0.65
2023-02-25T09:07:08.025Z,0.88
2023-02-25T09:09:36.997Z,0.47
2023-02-25T09:12:09.612Z,0.73
2023-02-25T09:15:08.658Z,0.60
2023-02-25T09:17:39.402Z,0.47
2023-02-25T09:20:11.580Z,0.30
2023-02-25T09:22:41.370Z,0.68
2023-02-25T09:25:10.714Z,0.50
2023-02-25T09:27:39.787Z,0.70
2023-02-25T09:30:12.129Z,0.40
2023-02-25T09:32:43.201Z,0.30
2023-02-25T09:35:12.716Z,0.30
2023-02-25T09:37:41.709Z,0.30
2023-02-25T09:40:18.445Z,0.43
2023-02-25T09:43:07.596Z,0.28
2023-02-25T09:45:38.190Z,0.40
2023-02-25T09:48:19.381Z,0.40
2023-02-25T09:50:53.110Z,0.28
2023-02-25T09:53:27.928Z,0.30
2023-02-25T09:55:57.110Z,0.35
2023-02-25T09:58:36.448Z,0.30
2023-02-25T10:01:15.502Z,0.22
2023-02-25T10:03:58.062Z,0.30
2023-02-25T10:06:39.202Z,0.68
2023-02-25T10:09:22.700Z,0.25
2023-02-25T10:11:58.121Z,0.32
2023-02-25T10:14:48.510Z,0.15
2023-02-25T10:17:31.442Z,0.38
2023-02-25T10:20:27.515Z,0.50
2023-02-25T10:23:05.647Z,0.35
2023-02-25T10:25:41.219Z,0.45
2023-02-25T10:28:18.713Z,0.20
2023-02-25T10:33:25.947Z,0.88
2023-02-25T10:36:04.104Z,0.10
2023-02-25T10:38:34.562Z,0.52
2023-02-25T10:41:03.944Z,0.40
2023-02-25T10:43:35.640Z,0.28
2023-02-25T10:46:11.952Z,0.30
2023-02-25T10:48:48.162Z,0.32
2023-02-25T10:51:19.336Z,0.20
2023-02-25T10:54:06.697Z,0.45
2023-02-25T10:56:43.549Z,0.38
2023-02-25T10:59:31.261Z,0.38
2023-02-25T11:02:03.354Z,0.25
2023-02-25T11:04:38.736Z,0.40
2023-02-25T11:07:41.566Z,0.22
2023-02-25T11:10:20.812Z,0.30
2023-02-25T11:12:52.604Z,0.40
2023-02-25T11:15:50.032Z,0.30
2023-02-25T11:18:24.773Z,0.50
2023-02-25T11:20:56.502Z,0.70
2023-02-25T11:23:33.616Z,0.30
2023-02-25T11:26:03.248Z,0.30
2023-02-25T11:28:37.455Z,0.40
2023-02-25T11:31:14.341Z,0.30
2023-02-25T11:33:48.383Z,0.40
2023-02-25T11:36:24.591Z,0.20
2023-02-25T11:39:15.477Z,0.43
2023-02-25T11:41:46.517Z,0.30
2023-02-25T11:44:29.700Z,0.40
2023-02-25T11:47:05.849Z,0.25
2023-02-25T11:49:54.190Z,0.40
2023-02-25T11:52:33.022Z,0.45
2023-02-25T11:55:18.207Z,0.22
2023-02-25T11:58:03.729Z,0.50
2023-02-25T12:00:43.387Z,0.40
2023-02-25T12:04:07.303Z,0.47
2023-02-25T12:07:07.300Z,0.65
2023-02-25T12:10:10.465Z,0.38
2023-02-25T12:13:26.686Z,0.35
2023-02-25T12:17:00.567Z,0.20
2023-02-25T12:20:14.579Z,0.35
2023-02-25T12:23:22.752Z,0.40
2023-02-25T12:26:04.607Z,0.30
2023-02-25T12:29:19.110Z,0.55
2023-02-25T12:32:14.612Z,0.43
2023-02-25T12:35:34.658Z,0.40
2023-02-25T12:38:57.307Z,0.20
2023-02-25T12:41:40.383Z,0.50
2023-02-25T12:44:59.747Z,1.20
2023-02-25T12:47:50.603Z,0.20
2023-02-25T12:50:58.585Z,0.40
2023-02-25T12:53:45.902Z,0.32
2023-02-25T12:56:54.408Z,0.43
2023-02-25T12:59:52.504Z,0.30
2023-02-25T13:02:55.054Z,0.50
2023-02-25T13:06:04.036Z,0.40
2023-02-25T13:08:56.176Z,0.45
2023-02-25T13:12:01.001Z,0.40
2023-02-25T13:14:46.582Z,0.40
2023-02-25T13:17:34.458Z,0.22
2023-02-25T13:20:48.647Z,0.77
2023-02-25T13:23:50.446Z,0.47
2023-02-25T13:26:42.213Z,0.20
2023-02-25T13:29:41.118Z,0.35
2023-02-25T13:32:26.862Z,0.20
2023-02-25T13:35:19.557Z,0.22
2023-02-25T13:37:59.394Z,0.47
2023-02-25T13:40:51.911Z,0.30
2023-02-25T13:43:52.426Z,0.20
2023-02-25T13:47:10.854Z,0.40
2023-02-25T13:50:16.828Z,0.43
2023-02-25T13:53:07.546Z,0.40
2023-02-25T13:56:14.944Z,0.30
2023-02-25T13:59:03.142Z,0.38
2023-02-25T14:01:48.322Z,0.40
2023-02-25T14:04:56.866Z,1.45
2023-02-25T14:07:50.989Z,0.40
2023-02-25T14:10:36.214Z,0.17
2023-02-25T14:13:42.957Z,0.60
2023-02-25T14:16:32.795Z,0.10
2023-02-25T14:19:23.580Z,0.20
2023-02-25T14:22:22.672Z,0.40
2023-02-25T14:25:04.000Z,0.38
2023-02-25T14:27:42.675Z,0.32
2023-02-25T14:30:28.220Z,1.25
2023-02-25T14:33:13.998Z,0.80
2023-02-25T14:36:03.065Z,0.70
2023-02-25T14:38:55.419Z,1.60
2023-02-25T14:41:39.073Z,2.72
2023-02-25T14:44:13.811Z,2.65
2023-02-25T14:46:57.298Z,2.72
2023-02-25T14:49:31.514Z,2.83
2023-02-25T14:52:27.730Z,2.85
2023-02-25T14:55:26.401Z,2.63
2023-02-25T15:01:29.300Z,2.85
2023-02-25T15:04:43.314Z,2.72
2023-02-25T15:07:50.728Z,2.75
2023-02-25T15:10:41.357Z,2.67
2023-02-25T15:14:10.658Z,3.10
2023-02-25T15:17:39.912Z,3.25
2023-02-25T15:20:33.179Z,2.88
2023-02-25T15:23:11.975Z,3.28
2023-02-25T15:25:47.815Z,3.10
2023-02-25T15:28:50.961Z,2.95
2023-02-25T15:31:32.881Z,3.47
2023-02-25T15:34:54.976Z,3.22
2023-02-25T15:37:30.726Z,3.33
2023-02-25T15:40:03.723Z,3.20
2023-02-25T15:42:53.957Z,2.97
2023-02-25T15:45:43.118Z,2.80
2023-02-25T15:48:34.407Z,2.80
2023-02-25T15:51:10.380Z,2.97
2023-02-25T15:53:48.764Z,3.17
2023-02-25T15:56:51.453Z,2.72
2023-02-25T15:59:48.366Z,2.70
2023-02-25T16:02:58.488Z,3.17
2023-02-25T16:05:34.745Z,3.33
2023-02-25T16:08:24.649Z,2.67
2023-02-25T16:10:57.382Z,1.98
2023-02-25T16:13:31.049Z,2.40
2023-02-25T16:16:03.464Z,2.30
2023-02-25T16:18:37.059Z,2.08
2023-02-25T16:21:09.452Z,2.20
2023-02-25T16:23:42.369Z,7.55
2023-02-25T16:26:30.358Z,2.70
2023-02-25T16:31:50.932Z,2.40
2023-02-25T16:34:26.986Z,2.50
2023-02-25T16:37:09.624Z,1.95
2023-02-25T16:39:40.114Z,3.53
2023-02-25T16:42:15.945Z,3.90
2023-02-25T16:44:56.238Z,4.95
2023-02-25T16:47:29.734Z,1.40
2023-02-25T16:50:12.704Z,1.35
2023-02-25T16:52:50.534Z,0.60
2023-02-25T16:55:23.923Z,0.55
2023-02-25T16:58:04.434Z,0.90
2023-02-25T17:00:34.630Z,1.25
2023-02-25T17:03:11.845Z,1.10
2023-02-25T17:05:40.864Z,1.10
2023-02-25T17:08:17.922Z,1.70
2023-02-25T17:10:50.690Z,0.80
2023-02-25T17:13:27.366Z,0.82
2023-02-25T17:15:57.131Z,0.50
2023-02-25T17:18:32.750Z,0.75
2023-02-25T17:21:06.305Z,2.45
2023-02-25T17:23:40.021Z,1.10
2023-02-25T17:26:12.910Z,1.80
2023-02-25T17:28:43.074Z,1.83
2023-02-25T17:31:15.575Z,4.00
2023-02-25T17:33:51.099Z,1.52
2023-02-25T17:36:25.146Z,1.00
2023-02-25T17:38:58.361Z,0.80
2023-02-25T17:41:28.006Z,0.82
2023-02-25T17:43:57.354Z,0.95
2023-02-25T17:46:36.143Z,1.52
2023-02-25T17:49:18.932Z,0.80
2023-02-25T17:51:52.542Z,0.85
2023-02-25T17:54:25.223Z,1.00
2023-02-25T17:56:59.893Z,1.05
2023-02-25T17:59:38.919Z,0.80
2023-02-25T18:02:35.388Z,0.80
2023-02-25T18:05:27.094Z,0.63
2023-02-25T18:08:18.037Z,0.75
2023-02-25T18:10:55.935Z,0.47
2023-02-25T18:13:35.264Z,0.88
2023-02-25T18:16:41.165Z,0.88
2023-02-25T18:19:44.404Z,0.88
2023-02-25T18:22:34.405Z,0.80
2023-02-25T18:25:08.553Z,0.80
2023-02-25T18:27:38.061Z,1.05
2023-02-25T18:30:19.536Z,0.70
2023-02-25T18:32:49.187Z,0.80
2023-02-25T18:35:19.835Z,0.90
2023-02-25T18:37:55.511Z,0.80
2023-02-25T18:40:29.675Z,0.70
2023-02-25T18:43:00.192Z,0.80
2023-02-25T18:45:31.371Z,0.75
2023-02-25T18:48:01.822Z,1.10
2023-02-25T18:50:32.863Z,1.10
2023-02-25T18:53:04.976Z,1.15
2023-02-25T18:55:35.177Z,1.25
2023-02-25T18:58:07.256Z,1.40
2023-02-25T19:00:36.882Z,1.58
2023-02-25T19:03:07.103Z,1.70
2023-02-25T19:05:39.208Z,1.45
2023-02-25T19:08:14.197Z,1.50
2023-02-25T19:10:45.547Z,1.00
2023-02-25T19:13:18.716Z,1.40
2023-02-25T19:15:50.569Z,1.13
2023-02-25T19:18:19.750Z,1.73
2023-02-25T19:20:48.881Z,1.90
2023-02-25T19:23:19.853Z,1.95
2023-02-25T19:25:54.543Z,2.05
2023-02-25T19:28:24.212Z,1.10
2023-02-25T19:30:53.169Z,1.30
2023-02-25T19:33:22.218Z,1.83
2023-02-25T19:35:53.109Z,1.48
2023-02-25T19:38:23.679Z,1.60
2023-02-25T19:40:52.866Z,1.50
2023-02-25T19:43:21.908Z,0.52
2023-02-25T19:45:52.214Z,0.88
2023-02-25T19:48:21.542Z,1.17
2023-02-25T19:50:51.572Z,1.05
2023-02-25T19:53:20.684Z,1.02
2023-02-25T19:55:57.522Z,1.15
2023-02-25T19:58:32.198Z,0.85
2023-02-25T20:01:07.260Z,0.60
2023-02-25T20:03:37.676Z,1.00
2023-02-25T20:06:22.236Z,0.77
2023-02-25T20:08:53.210Z,0.85
2023-02-25T20:11:23.875Z,0.82
2023-02-25T20:13:53.446Z,0.80
2023-02-25T20:16:24.261Z,0.85
2023-02-25T20:18:57.586Z,0.68
2023-02-25T20:21:28.634Z,0.80
2023-02-25T20:24:00.009Z,0.50
2023-02-25T20:26:33.273Z,0.70
2023-02-25T20:29:06.067Z,1.35
2023-02-25T20:31:35.715Z,1.17
2023-02-25T20:34:08.439Z,0.82
2023-02-25T20:36:42.656Z,0.63
2023-02-25T20:39:36.726Z,0.90
2023-02-25T20:42:11.673Z,0.95
2023-02-25T20:44:43.628Z,1.00
2023-02-25T20:47:19.364Z,1.13
2023-02-25T20:49:49.323Z,1.30
2023-02-25T20:52:20.083Z,1.38
2023-02-25T20:54:53.181Z,1.55
2023-02-25T20:57:26.717Z,1.20
2023-02-25T20:59:55.950Z,0.90
2023-02-25T21:02:27.398Z,0.93
2023-02-25T21:04:56.390Z,1.02
2023-02-25T21:07:25.347Z,0.80
2023-02-25T21:09:54.258Z,1.40
2023-02-25T21:12:24.800Z,1.27
2023-02-25T21:14:53.736Z,1.23
2023-02-25T21:17:22.969Z,1.30
2023-02-25T21:19:51.963Z,1.10
2023-02-25T21:22:20.830Z,1.23
2023-02-25T21:24:49.730Z,1.00
2023-02-25T21:27:18.962Z,1.10
2023-02-25T21:29:51.073Z,1.65
2023-02-25T21:32:23.323Z,0.80
2023-02-25T21:34:55.310Z,0.95
2023-02-25T21:37:28.035Z,1.08
2023-02-25T21:39:57.019Z,1.13
2023-02-25T21:42:25.892Z,0.90
2023-02-25T21:44:56.299Z,2.10
2023-02-25T21:47:25.255Z,2.40
2023-02-25T21:49:55.052Z,1.55
2023-02-25T21:52:24.278Z,1.17
2023-02-25T21:54:54.033Z,1.17
2023-02-25T21:57:22.961Z,1.13
2023-02-25T21:59:53.749Z,1.20
2023-02-25T22:02:25.006Z,1.10
2023-02-25T22:04:53.910Z,1.20
2023-02-25T22:07:29.466Z,1.10
2023-02-25T22:09:58.622Z,1.58
2023-02-25T22:12:28.229Z,1.20
2023-02-25T22:15:03.094Z,1.60
2023-02-25T22:17:33.667Z,1.10
2023-02-25T22:20:06.739Z,1.27
2023-02-25T22:22:38.341Z,1.58
2023-02-25T22:25:08.338Z,1.70
2023-02-25T22:27:37.310Z,1.67
2023-02-25T22:30:08.804Z,1.98
2023-02-25T22:32:39.446Z,1.90
2023-02-25T22:35:09.054Z,1.55
2023-02-25T22:37:38.084Z,1.52
2023-02-25T22:40:08.566Z,1.48
2023-02-25T22:42:37.479Z,1.50
2023-02-25T22:45:08.019Z,1.63
2023-02-25T22:47:38.393Z,1.50
2023-02-25T22:50:09.169Z,1.67
2023-02-25T22:52:40.495Z,2.10
2023-02-25T22:55:10.977Z,1.92
2023-02-25T22:57:39.900Z,1.60
2023-02-25T23:00:16.920Z,1.80
2023-02-25T23:02:50.192Z,1.80
2023-02-25T23:05:19.098Z,1.70
2023-02-25T23:07:49.724Z,1.88
2023-02-25T23:10:19.295Z,1.60
2023-02-25T23:12:48.281Z,1.85
2023-02-25T23:15:17.550Z,1.75
2023-02-25T23:17:47.818Z,1.85
2023-02-25T23:20:16.849Z,1.90
2023-02-25T23:22:45.844Z,1.85
2023-02-25T23:25:14.754Z,1.58
2023-02-25T23:27:43.686Z,1.80
2023-02-25T23:30:13.982Z,1.52
2023-02-25T23:32:43.050Z,1.48
2023-02-25T23:35:16.534Z,1.50
2023-02-25T23:37:52.794Z,1.50
2023-02-25T23:40:22.209Z,1.65
2023-02-25T23:42:51.264Z,1.45
2023-02-25T23:45:20.269Z,1.73
2023-02-25T23:47:49.276Z,1.70
2023-02-25T23:50:19.789Z,1.70
2023-02-25T23:52:48.761Z,1.50
2023-02-25T23:55:17.904Z,1.60
2023-02-25T23:57:46.804Z,1.63
